Time;durP1;ratioP1;P1;durP2;ratioP2;P2;SDS_P1;SDS_P2;PMS_P1;PMS_P2;Temp;Humidity;BMP_temperature;BMP_pressure;BME280_temperature;BME280_humidity;BME280_pressure;Samples;Min_cycle;Max_cycle;Signal;HPM_P1;HPM_P2
2022/09/03 00:00:24;;;;;;;3.00;0.90;;;18.00;43.00;;;;;;4976526;28;20046;-66
2022/09/03 00:03:42;;;;;;;6.15;1.30;;;17.90;43.10;;;;;;4983845;28;20038;-66
2022/09/03 00:06:15;;;;;;;4.72;0.90;;;17.90;43.20;;;;;;4936034;29;20452;-65
2022/09/03 00:09:00;;;;;;;6.53;0.90;;;17.80;43.20;;;;;;4935205;29;20049;-66
2022/09/03 00:11:34;;;;;;;3.25;0.88;;;17.80;43.30;;;;;;4962658;28;20050;-66
2022/09/03 00:14:08;;;;;;;3.40;0.88;;;17.70;43.30;;;;;;4982710;28;20051;-65
2022/09/03 00:17:04;;;;;;;1.73;1.00;;;17.70;43.30;;;;;;4988783;28;20045;-65
2022/09/03 00:19:40;;;;;;;1.73;0.80;;;17.70;43.30;;;;;;4992385;28;20140;-65
2022/09/03 00:22:14;;;;;;;3.47;0.73;;;17.70;43.30;;;;;;4986956;28;20629;-66
2022/09/03 00:24:42;;;;;;;5.80;0.80;;;17.70;43.40;;;;;;4986745;28;20034;-65
2022/09/03 00:27:17;;;;;;;2.63;0.70;;;17.60;43.40;;;;;;4976063;28;20481;-65
2022/09/03 00:29:58;;;;;;;6.05;1.00;;;17.60;43.40;;;;;;4977441;28;20439;-65
2022/09/03 00:32:33;;;;;;;4.03;0.90;;;17.60;43.40;;;;;;4976896;28;20122;-65
2022/09/03 00:35:03;;;;;;;5.45;1.00;;;17.50;43.50;;;;;;4972488;28;20489;-65
2022/09/03 00:37:28;;;;;;;3.83;0.95;;;17.50;43.50;;;;;;4983720;28;20150;-65
2022/09/03 00:39:55;;;;;;;2.25;0.75;;;17.50;43.60;;;;;;4982110;28;20054;-65
2022/09/03 00:42:33;;;;;;;4.18;1.17;;;17.40;43.60;;;;;;4975634;28;20586;-65
2022/09/03 00:45:22;;;;;;;2.67;0.82;;;17.50;43.70;;;;;;4989849;28;20054;-65
2022/09/03 00:48:08;;;;;;;1.48;0.80;;;17.40;43.80;;;;;;4991012;28;20509;-65
2022/09/03 00:51:11;;;;;;;2.65;0.55;;;17.40;43.80;;;;;;4985043;28;20049;-65
2022/09/03 00:53:50;;;;;;;5.50;0.95;;;17.30;43.90;;;;;;4978085;28;20046;-65
2022/09/03 00:56:32;;;;;;;3.45;0.80;;;17.30;44.10;;;;;;4974270;28;20122;-65
2022/09/03 00:59:05;;;;;;;3.30;0.70;;;17.20;44.10;;;;;;4971703;28;20093;-65
2022/09/03 01:01:58;;;;;;;2.53;0.80;;;17.20;44.20;;;;;;4990313;28;20046;-65
2022/09/03 01:04:32;;;;;;;1.92;0.68;;;17.10;44.20;;;;;;4982465;28;20046;-65
2022/09/03 01:07:09;;;;;;;4.40;1.02;;;17.10;44.40;;;;;;4992670;28;20104;-65
2022/09/03 01:09:53;;;;;;;3.20;0.85;;;17.10;44.40;;;;;;4990828;28;20542;-65
2022/09/03 01:12:42;;;;;;;2.20;0.55;;;17.00;44.40;;;;;;4978658;28;20035;-65
2022/09/03 01:15:34;;;;;;;3.05;0.80;;;17.00;44.50;;;;;;4974045;28;20566;-65
2022/09/03 01:18:20;;;;;;;2.40;0.80;;;17.00;44.70;;;;;;4971460;28;20050;-65
2022/09/03 01:21:14;;;;;;;1.90;0.95;;;16.90;44.60;;;;;;4987147;28;20097;-65
2022/09/03 01:24:18;;;;;;;2.20;0.80;;;16.90;44.70;;;;;;4985982;28;20054;-65
2022/09/03 01:27:05;;;;;;;5.28;0.93;;;16.90;44.80;;;;;;4966002;28;20057;-66
2022/09/03 01:29:43;;;;;;;1.65;0.68;;;16.80;45.00;;;;;;4991735;28;20046;-66
2022/09/03 01:32:36;;;;;;;2.72;0.70;;;16.80;44.90;;;;;;4992572;28;20430;-66
2022/09/03 01:35:28;;;;;;;3.22;0.93;;;16.80;45.00;;;;;;4972979;28;20170;-66
2022/09/03 01:38:11;;;;;;;3.47;0.77;;;16.70;45.00;;;;;;4987070;28;20494;-67
2022/09/03 01:40:52;;;;;;;2.78;0.60;;;16.70;45.10;;;;;;4990241;28;20053;-67
2022/09/03 01:43:27;;;;;;;2.38;0.80;;;16.70;45.20;;;;;;4988153;28;20049;-64
2022/09/03 01:46:07;;;;;;;2.00;0.68;;;16.70;45.20;;;;;;4957269;28;20160;-65
2022/09/03 01:48:40;;;;;;;3.78;0.70;;;16.70;45.30;;;;;;4991291;28;20498;-65
2022/09/03 01:51:20;;;;;;;2.55;0.80;;;16.70;45.20;;;;;;4978974;28;20554;-65
2022/09/03 01:54:17;;;;;;;2.20;0.68;;;16.70;45.50;;;;;;4982508;28;20055;-65
2022/09/03 01:57:18;;;;;;;2.08;0.80;;;16.70;45.30;;;;;;4979691;28;20034;-66
2022/09/03 02:00:02;;;;;;;3.13;0.70;;;16.70;45.30;;;;;;4973672;28;20077;-66
2022/09/03 02:02:29;;;;;;;3.42;0.63;;;16.70;45.20;;;;;;4980203;28;20121;-66
2022/09/03 02:04:55;;;;;;;3.28;0.70;;;16.70;45.20;;;;;;4978676;28;20047;-66
2022/09/03 02:07:23;;;;;;;3.40;0.50;;;16.70;45.10;;;;;;4975490;28;20045;-66
2022/09/03 02:09:49;;;;;;;2.15;0.68;;;16.80;45.20;;;;;;4975249;28;20101;-66
2022/09/03 02:12:17;;;;;;;1.77;0.77;;;16.70;45.20;;;;;;4981751;28;20496;-66
2022/09/03 02:14:43;;;;;;;5.38;0.73;;;16.70;45.20;;;;;;4986809;28;20093;-66
2022/09/03 02:17:10;;;;;;;3.10;0.88;;;16.80;45.20;;;;;;4987754;28;20042;-66
2022/09/03 02:19:36;;;;;;;1.42;0.73;;;16.70;45.10;;;;;;4983688;28;20086;-66
2022/09/03 02:22:04;;;;;;;1.27;0.60;;;16.70;45.50;;;;;;4972945;28;20093;-66
2022/09/03 02:24:29;;;;;;;5.30;1.10;;;16.70;45.20;;;;;;4981944;28;20041;-65
2022/09/03 02:26:55;;;;;;;1.80;0.82;;;16.70;45.20;;;;;;4993099;28;20394;-65
2022/09/03 02:29:21;;;;;;;2.45;0.70;;;16.70;45.10;;;;;;4988572;28;20042;-65
2022/09/03 02:31:47;;;;;;;2.63;0.70;;;16.70;45.10;;;;;;4972750;28;20054;-65
2022/09/03 02:34:13;;;;;;;4.75;0.75;;;16.70;45.10;;;;;;4975074;28;20037;-65
2022/09/03 02:36:42;;;;;;;3.60;0.80;;;16.80;45.10;;;;;;4972798;28;20121;-66
2022/09/03 02:39:08;;;;;;;3.38;0.52;;;16.70;45.10;;;;;;4973944;28;20051;-66
2022/09/03 02:41:34;;;;;;;1.10;0.60;;;16.80;45.10;;;;;;4977560;28;20051;-66
2022/09/03 02:44:24;;;;;;;3.05;1.00;;;16.80;45.10;;;;;;4989807;28;20050;-66
2022/09/03 02:46:56;;;;;;;2.35;0.70;;;16.70;45.10;;;;;;4972654;28;20129;-66
2022/09/03 02:49:21;;;;;;;3.95;0.88;;;16.70;45.10;;;;;;4985354;28;20039;-66
2022/09/03 02:51:47;;;;;;;3.70;0.57;;;16.80;45.10;;;;;;4974814;28;20064;-66
2022/09/03 02:54:13;;;;;;;1.77;0.70;;;16.80;45.10;;;;;;4969292;28;20084;-68
2022/09/03 02:56:39;;;;;;;2.58;0.70;;;16.80;45.10;;;;;;4985337;28;20034;-66
2022/09/03 02:59:07;;;;;;;2.60;0.65;;;16.80;45.60;;;;;;4975058;28;20039;-66
2022/09/03 03:01:33;;;;;;;2.05;0.60;;;16.80;45.20;;;;;;4976776;28;20034;-66
2022/09/03 03:03:59;;;;;;;1.67;0.88;;;16.80;45.20;;;;;;4988215;28;20130;-66
2022/09/03 03:06:25;;;;;;;2.72;0.70;;;16.80;45.30;;;;;;4988569;28;20133;-66
2022/09/03 03:08:51;;;;;;;2.70;0.90;;;16.80;45.40;;;;;;4985675;28;20122;-66
2022/09/03 03:11:18;;;;;;;3.80;0.80;;;16.80;45.30;;;;;;4956630;28;20460;-66
2022/09/03 03:13:45;;;;;;;2.83;0.60;;;16.80;45.30;;;;;;4978619;28;20121;-66
2022/09/03 03:16:11;;;;;;;4.68;1.02;;;16.70;45.30;;;;;;4991686;28;20138;-66
2022/09/03 03:18:38;;;;;;;2.95;0.68;;;16.80;45.40;;;;;;4977926;28;20587;-66
2022/09/03 03:21:16;;;;;;;4.63;0.75;;;16.80;45.30;;;;;;4987547;28;20122;-66
2022/09/03 03:23:42;;;;;;;2.40;0.63;;;16.80;45.30;;;;;;4973755;28;20051;-66
2022/09/03 03:26:10;;;;;;;2.75;0.80;;;16.80;45.30;;;;;;4974766;28;20418;-66
2022/09/03 03:28:36;;;;;;;4.25;1.15;;;16.80;45.30;;;;;;4981767;28;20508;-66
2022/09/03 03:31:09;;;;;;;2.38;0.50;;;16.80;45.40;;;;;;4992719;28;20034;-65
2022/09/03 03:33:35;;;;;;;1.23;0.60;;;16.80;45.30;;;;;;4994847;28;20451;-65
2022/09/03 03:36:20;;;;;;;1.98;0.65;;;16.80;45.30;;;;;;4985792;28;20081;-65
2022/09/03 03:38:46;;;;;;;3.33;1.33;;;16.70;45.40;;;;;;4975707;28;20094;-65
2022/09/03 03:41:21;;;;;;;1.50;0.70;;;16.70;45.40;;;;;;4988324;28;20548;-65
2022/09/03 03:43:51;;;;;;;1.90;0.77;;;16.70;45.30;;;;;;4995337;28;20478;-65
2022/09/03 03:46:16;;;;;;;0.90;0.70;;;16.70;45.60;;;;;;4994770;28;20050;-66
2022/09/03 03:48:42;;;;;;;4.72;0.80;;;16.70;45.30;;;;;;4991632;28;20054;-66
2022/09/03 03:51:09;;;;;;;1.83;0.52;;;16.70;45.30;;;;;;4982543;28;20089;-66
2022/09/03 03:53:37;;;;;;;4.10;0.93;;;16.70;45.40;;;;;;4982725;28;20048;-66
2022/09/03 03:56:05;;;;;;;1.65;0.80;;;16.70;45.40;;;;;;4986617;28;20152;-66
2022/09/03 03:58:32;;;;;;;2.70;0.70;;;16.70;45.40;;;;;;4995250;28;20088;-66
2022/09/03 04:01:13;;;;;;;1.65;0.85;;;16.70;45.40;;;;;;4991162;28;20046;-66
2022/09/03 04:03:39;;;;;;;1.73;0.65;;;16.70;45.60;;;;;;4986948;28;20038;-66
2022/09/03 04:06:05;;;;;;;1.23;0.68;;;16.60;45.60;;;;;;4994394;28;20058;-65
2022/09/03 04:08:35;;;;;;;1.10;0.70;;;16.60;45.60;;;;;;4995669;28;20462;-66
2022/09/03 04:11:02;;;;;;;1.40;0.73;;;16.60;45.70;;;;;;4993267;28;20078;-66
2022/09/03 04:13:32;;;;;;;4.93;0.80;;;16.60;45.70;;;;;;4980888;28;20491;-66
2022/09/03 04:16:30;;;;;;;2.72;0.70;;;16.60;45.70;;;;;;4976782;28;20035;-66
2022/09/03 04:18:56;;;;;;;2.25;0.65;;;16.50;45.70;;;;;;4980821;28;20081;-66
2022/09/03 04:21:26;;;;;;;1.85;0.60;;;16.50;45.80;;;;;;4982997;28;20077;-66
2022/09/03 04:23:53;;;;;;;1.77;0.57;;;16.50;45.90;;;;;;4992216;28;20042;-66
2022/09/03 04:26:25;;;;;;;2.75;0.77;;;16.50;46.00;;;;;;4993986;28;20046;-66
2022/09/03 04:28:51;;;;;;;1.80;0.70;;;16.40;46.00;;;;;;4993529;28;20453;-66
2022/09/03 04:31:19;;;;;;;2.90;0.90;;;16.40;46.10;;;;;;4984250;28;20117;-66
2022/09/03 04:33:44;;;;;;;3.88;0.68;;;16.30;46.10;;;;;;4977687;28;20430;-66
2022/09/03 04:36:12;;;;;;;5.35;0.90;;;16.30;46.20;;;;;;4985170;28;20183;-66
2022/09/03 04:38:41;;;;;;;1.77;1.00;;;16.30;46.30;;;;;;4994290;28;20093;-66
2022/09/03 04:41:10;;;;;;;1.88;0.82;;;16.30;46.30;;;;;;4993397;28;20077;-66
2022/09/03 04:43:36;;;;;;;1.00;0.63;;;16.30;46.40;;;;;;4991824;28;20536;-66
2022/09/03 04:46:05;;;;;;;2.10;0.50;;;16.20;46.40;;;;;;4991949;28;20042;-66
2022/09/03 04:48:32;;;;;;;1.15;0.70;;;16.20;46.40;;;;;;4992176;28;20498;-66
2022/09/03 04:51:06;;;;;;;1.83;0.70;;;16.20;46.60;;;;;;4982699;28;20043;-66
2022/09/03 04:53:33;;;;;;;;;;;16.20;46.60;;;;;;4992715;28;20180;-68
2022/09/03 04:55:59;;;;;;;1.85;0.77;;;16.10;46.60;;;;;;4994551;28;19940;-66
2022/09/03 04:58:25;;;;;;;4.47;0.88;;;16.10;46.70;;;;;;4992071;28;20046;-66
2022/09/03 05:00:51;;;;;;;2.35;0.63;;;16.10;46.80;;;;;;4986947;28;20047;-66
2022/09/03 05:03:16;;;;;;;3.15;0.90;;;16.00;46.80;;;;;;4975447;28;20054;-66
2022/09/03 05:05:42;;;;;;;4.20;0.80;;;16.00;46.90;;;;;;4987461;28;20034;-66
2022/09/03 05:08:08;;;;;;;1.45;0.85;;;16.00;47.00;;;;;;4986790;28;20078;-66
2022/09/03 05:10:33;;;;;;;1.17;0.68;;;16.00;47.10;;;;;;4975699;28;20074;-66
2022/09/03 05:13:01;;;;;;;2.70;0.90;;;15.90;47.20;;;;;;4971156;28;20042;-66
2022/09/03 05:15:28;;;;;;;1.60;0.85;;;15.90;47.30;;;;;;4988240;28;20394;-67
2022/09/03 05:17:58;;;;;;;2.15;0.82;;;15.90;47.30;;;;;;4977085;28;20512;-67
2022/09/03 05:20:24;;;;;;;1.88;0.88;;;15.90;47.50;;;;;;4993812;28;20038;-67
2022/09/03 05:22:50;;;;;;;0.88;0.60;;;15.90;47.50;;;;;;4991705;28;20105;-67
2022/09/03 05:25:16;;;;;;;2.03;0.80;;;15.90;47.60;;;;;;4988204;28;20382;-67
2022/09/03 05:27:42;;;;;;;1.80;0.88;;;15.90;47.70;;;;;;4973558;28;20115;-67
2022/09/03 05:30:08;;;;;;;0.80;0.68;;;15.80;47.60;;;;;;4973935;28;20391;-66
2022/09/03 05:32:34;;;;;;;2.22;0.88;;;15.80;47.70;;;;;;4975936;28;20046;-67
2022/09/03 05:35:00;;;;;;;2.72;0.98;;;15.80;47.80;;;;;;4983996;28;20034;-66
2022/09/03 05:37:26;;;;;;;1.05;0.70;;;15.80;47.90;;;;;;4969278;28;20049;-65
2022/09/03 05:39:52;;;;;;;1.67;0.80;;;15.80;48.00;;;;;;4979461;28;20502;-66
2022/09/03 05:42:18;;;;;;;0.88;0.60;;;15.80;48.10;;;;;;4992795;28;20058;-65
2022/09/03 05:44:44;;;;;;;2.15;0.93;;;15.80;48.60;;;;;;4991243;28;20522;-65
2022/09/03 05:47:10;;;;;;;1.92;0.68;;;15.80;48.30;;;;;;4991466;28;20081;-66
2022/09/03 05:49:35;;;;;;;1.85;0.70;;;15.80;48.80;;;;;;4985138;28;20070;-66
2022/09/03 05:52:02;;;;;;;2.15;0.70;;;15.80;48.60;;;;;;4986519;28;20043;-66
2022/09/03 05:54:27;;;;;;;3.63;0.80;;;15.80;48.70;;;;;;4982753;28;20552;-66
2022/09/03 05:56:53;;;;;;;1.92;0.98;;;15.80;48.80;;;;;;4992042;28;20125;-66
2022/09/03 05:59:19;;;;;;;1.33;0.70;;;15.70;48.70;;;;;;4988015;28;20046;-66
2022/09/03 06:01:45;;;;;;;2.17;1.00;;;15.70;48.80;;;;;;4973434;28;20505;-64
2022/09/03 06:04:15;;;;;;;1.42;0.80;;;15.70;48.90;;;;;;4973587;28;20541;-64
2022/09/03 06:06:43;;;;;;;2.60;0.95;;;15.70;49.10;;;;;;4974490;28;20039;-65
2022/09/03 06:09:12;;;;;;;2.53;0.98;;;15.60;49.10;;;;;;4992199;28;20097;-64
2022/09/03 06:11:39;;;;;;;2.78;0.88;;;15.60;49.30;;;;;;4988202;28;20039;-65
2022/09/03 06:14:07;;;;;;;4.03;1.08;;;15.60;49.50;;;;;;4980626;28;20482;-65
2022/09/03 06:16:38;;;;;;;2.88;1.10;;;15.60;49.50;;;;;;4981983;28;20038;-65
2022/09/03 06:19:08;;;;;;;8.63;1.83;;;15.60;49.60;;;;;;4990992;28;20101;-65
2022/09/03 06:21:41;;;;;;;2.80;0.60;;;15.60;49.80;;;;;;4992043;28;20081;-65
2022/09/03 06:24:13;;;;;;;1.55;0.80;;;15.60;49.80;;;;;;4991762;28;20120;-65
2022/09/03 06:26:39;;;;;;;3.22;1.10;;;15.60;49.80;;;;;;4991655;28;20061;-65
2022/09/03 06:29:05;;;;;;;4.15;0.90;;;15.70;49.90;;;;;;4987633;28;20046;-66
2022/09/03 06:31:31;;;;;;;2.30;1.10;;;15.80;49.90;;;;;;4986412;28;20034;-65
2022/09/03 06:33:57;;;;;;;4.13;1.10;;;15.90;49.80;;;;;;4983871;28;20105;-66
2022/09/03 06:36:25;;;;;;;2.10;0.85;;;15.90;49.80;;;;;;4987049;28;20053;-65
2022/09/03 06:38:53;;;;;;;1.55;0.77;;;16.00;49.80;;;;;;4980099;28;20062;-65
2022/09/03 06:41:24;;;;;;;3.20;1.55;;;16.20;49.70;;;;;;4991557;28;20061;-65
2022/09/03 06:43:52;;;;;;;4.18;0.95;;;16.30;49.60;;;;;;4974902;28;20053;-67
2022/09/03 06:46:21;;;;;;;2.78;1.00;;;16.60;49.10;;;;;;4985817;28;20121;-66
2022/09/03 06:48:47;;;;;;;2.10;0.90;;;16.70;48.80;;;;;;4991414;28;20066;-65
2022/09/03 06:51:15;;;;;;;1.67;0.90;;;16.80;48.70;;;;;;4980746;28;20063;-64
2022/09/03 06:53:44;;;;;;;2.47;0.75;;;17.00;48.40;;;;;;4973278;28;20074;-66
2022/09/03 06:56:12;;;;;;;2.80;0.90;;;17.20;48.10;;;;;;4979011;28;20042;-66
2022/09/03 06:58:42;;;;;;;2.30;0.80;;;17.30;48.00;;;;;;4992524;28;20038;-66
2022/09/03 07:01:30;;;;;;;2.33;1.00;;;17.40;48.00;;;;;;4985636;28;20050;-66
2022/09/03 07:04:03;;;;;;;2.60;1.10;;;17.60;47.40;;;;;;4979560;28;20130;-66
2022/09/03 07:06:36;;;;;;;2.33;0.80;;;17.70;47.40;;;;;;4988185;28;20076;-66
2022/09/03 07:09:02;;;;;;;3.90;1.00;;;17.80;47.00;;;;;;4987007;28;20046;-66
2022/09/03 07:11:32;;;;;;;2.83;1.10;;;17.90;46.60;;;;;;4994554;28;20389;-65
2022/09/03 07:13:59;;;;;;;2.45;1.20;;;17.90;46.40;;;;;;4984708;28;20093;-65
2022/09/03 07:16:31;;;;;;;3.55;1.20;;;18.00;46.30;;;;;;4980474;28;20394;-66
2022/09/03 07:18:57;;;;;;;2.97;1.30;;;18.10;46.30;;;;;;4977145;28;20065;-66
2022/09/03 07:21:25;;;;;;;3.53;1.13;;;18.10;46.00;;;;;;4993851;28;20125;-65
2022/09/03 07:23:52;;;;;;;2.90;1.38;;;18.20;45.90;;;;;;4996745;28;20039;-65
2022/09/03 07:26:23;;;;;;;2.85;0.90;;;18.30;45.90;;;;;;4993811;28;20093;-66
2022/09/03 07:28:50;;;;;;;2.70;1.30;;;18.40;46.00;;;;;;4998805;28;20042;-66
2022/09/03 07:31:18;;;;;;;7.22;1.23;;;18.40;45.60;;;;;;4993137;28;20035;-66
2022/09/03 07:33:45;;;;;;;6.78;1.15;;;18.50;45.60;;;;;;4982064;28;20038;-66
2022/09/03 07:36:14;;;;;;;3.50;1.00;;;18.60;45.70;;;;;;4982937;28;20047;-67
2022/09/03 07:38:43;;;;;;;5.88;1.20;;;18.60;45.70;;;;;;4985260;28;20088;-67
2022/09/03 07:41:11;;;;;;;4.28;0.90;;;18.70;45.60;;;;;;4983723;28;20109;-67
2022/09/03 07:43:42;;;;;;;1.95;0.98;;;18.90;45.20;;;;;;4969254;28;20038;-68
2022/09/03 07:46:11;;;;;;;4.05;1.30;;;18.90;44.80;;;;;;4984841;28;20097;-67
2022/09/03 07:48:39;;;;;;;3.17;0.93;;;19.00;44.50;;;;;;4991575;28;20050;-67
2022/09/03 07:51:05;;;;;;;3.03;1.27;;;19.10;44.70;;;;;;4987958;28;20080;-67
2022/09/03 07:53:31;;;;;;;5.22;1.08;;;19.10;44.10;;;;;;4990672;28;20039;-67
2022/09/03 07:56:05;;;;;;;3.50;1.48;;;19.20;44.20;;;;;;4974781;28;20379;-66
2022/09/03 07:58:32;;;;;;;4.00;1.25;;;19.20;44.30;;;;;;4984813;28;20418;-65
2022/09/03 08:01:03;;;;;;;3.67;1.40;;;19.30;44.30;;;;;;4988136;28;20093;-66
2022/09/03 08:03:28;;;;;;;3.70;1.00;;;19.40;44.30;;;;;;4981895;28;20042;-66
2022/09/03 08:06:03;;;;;;;5.60;1.50;;;19.30;44.40;;;;;;4981665;28;20675;-66
2022/09/03 08:08:31;;;;;;;6.43;1.75;;;19.50;44.50;;;;;;4981022;28;20054;-66
2022/09/03 08:11:09;;;;;;;2.42;0.88;;;19.60;44.30;;;;;;4983991;28;20061;-66
2022/09/03 08:13:36;;;;;;;4.47;1.63;;;19.70;44.20;;;;;;4993172;28;20053;-66
2022/09/03 08:16:02;;;;;;;3.50;1.30;;;19.80;44.20;;;;;;4967107;28;20038;-66
2022/09/03 08:18:30;;;;;;;3.90;1.30;;;19.90;43.90;;;;;;4989923;28;20096;-67
2022/09/03 08:20:58;;;;;;;5.85;1.67;;;19.90;43.70;;;;;;4991466;28;20088;-67
2022/09/03 08:23:24;;;;;;;6.40;1.25;;;20.10;43.10;;;;;;4992146;28;20042;-67
2022/09/03 08:25:58;;;;;;;3.58;1.25;;;20.20;42.80;;;;;;4984016;28;20375;-67
2022/09/03 08:28:24;;;;;;;2.90;0.98;;;20.30;42.80;;;;;;4992342;28;20070;-67
2022/09/03 08:30:50;;;;;;;4.50;1.27;;;20.30;42.80;;;;;;4983452;28;20074;-67
2022/09/03 08:33:15;;;;;;;4.55;1.40;;;20.40;42.80;;;;;;4991578;28;20121;-67
2022/09/03 08:35:41;;;;;;;3.67;1.30;;;20.50;42.30;;;;;;4981641;28;20538;-67
2022/09/03 08:38:07;;;;;;;3.05;1.60;;;20.50;42.30;;;;;;4975078;28;20465;-67
2022/09/03 08:40:37;;;;;;;4.15;1.60;;;20.60;42.50;;;;;;4987182;28;20046;-67
2022/09/03 08:43:04;;;;;;;4.75;1.65;;;20.70;42.30;;;;;;4974994;28;20077;-67
2022/09/03 08:45:32;;;;;;;3.58;1.15;;;20.80;42.00;;;;;;4981201;28;20124;-67
2022/09/03 08:48:21;;;;;;;3.15;1.27;;;20.90;41.70;;;;;;4989572;28;20035;-67
2022/09/03 08:50:54;;;;;;;3.28;1.27;;;21.00;41.90;;;;;;4977490;28;20054;-67
2022/09/03 08:53:37;;;;;;;5.63;1.23;;;21.10;41.80;;;;;;4974621;28;20073;-67
2022/09/03 08:56:09;;;;;;;1.58;0.93;;;21.20;41.90;;;;;;4987106;28;20114;-67
2022/09/03 08:58:42;;;;;;;4.10;1.30;;;21.30;41.60;;;;;;4990625;28;20053;-67
2022/09/03 09:01:10;;;;;;;6.95;1.23;;;21.30;41.50;;;;;;4982117;28;20053;-67
2022/09/03 09:03:56;;;;;;;1.85;1.02;;;21.40;41.60;;;;;;4982951;28;20083;-67
2022/09/03 09:06:29;;;;;;;4.35;0.93;;;21.50;41.50;;;;;;4985261;28;20101;-67
2022/09/03 09:09:01;;;;;;;1.92;0.80;;;21.60;41.40;;;;;;4982858;28;20498;-67
2022/09/03 09:12:08;;;;;;;4.47;1.35;;;21.60;41.60;;;;;;4986316;28;20714;-67
2022/09/03 09:14:45;;;;;;;4.00;0.90;;;21.70;41.50;;;;;;4986408;28;20049;-67
2022/09/03 09:17:29;;;;;;;2.15;1.23;;;21.90;41.40;;;;;;4986476;28;20121;-67
2022/09/03 09:20:08;;;;;;;3.25;1.23;;;22.00;41.20;;;;;;4986938;28;20053;-67
2022/09/03 09:22:38;;;;;;;2.75;1.00;;;22.10;40.50;;;;;;4985421;28;20050;-67
2022/09/03 09:25:13;;;;;;;1.85;0.98;;;22.10;40.40;;;;;;4984127;28;20047;-67
2022/09/03 09:27:57;;;;;;;3.55;1.35;;;22.20;40.90;;;;;;5003877;28;20053;-66
2022/09/03 09:30:23;;;;;;;2.95;1.10;;;22.30;40.40;;;;;;5008034;28;20085;-70
2022/09/03 09:32:49;;;;;;;2.45;1.00;;;22.40;40.50;;;;;;4982514;28;20050;-69
2022/09/03 09:35:17;;;;;;;2.83;1.08;;;22.50;40.30;;;;;;4988218;28;20038;-69
2022/09/03 09:38:01;;;;;;;5.10;1.45;;;22.60;40.40;;;;;;4977961;28;20078;-69
2022/09/03 09:40:33;;;;;;;3.97;1.38;;;22.70;39.90;;;;;;4987358;28;20050;-69
2022/09/03 09:43:11;;;;;;;2.78;1.00;;;22.80;39.70;;;;;;4982282;28;20096;-69
2022/09/03 09:45:40;;;;;;;2.75;0.90;;;22.90;39.80;;;;;;4988132;28;20101;-69
2022/09/03 09:48:30;;;;;;;3.10;0.90;;;23.00;39.90;;;;;;4973079;28;20065;-69
2022/09/03 09:51:09;;;;;;;2.63;1.13;;;23.10;39.20;;;;;;4986991;28;20121;-69
2022/09/03 09:53:35;;;;;;;2.38;1.38;;;23.10;38.80;;;;;;4983604;28;20030;-69
2022/09/03 09:56:04;;;;;;;3.28;1.00;;;23.20;39.30;;;;;;4983938;28;20088;-69
2022/09/03 09:58:32;;;;;;;2.78;0.82;;;23.30;39.50;;;;;;4979223;28;20129;-69
2022/09/03 10:01:14;;;;;;;2.05;0.95;;;23.40;39.00;;;;;;4981931;28;20049;-68
2022/09/03 10:03:54;;;;;;;2.47;1.00;;;23.50;38.50;;;;;;4986433;28;20042;-68
2022/09/03 10:09:17;;;;;;;4.45;1.20;;;23.70;37.80;;;;;;4990570;28;20069;-69
2022/09/03 10:11:50;;;;;;;3.45;0.90;;;23.80;38.00;;;;;;4986186;28;20199;-68
2022/09/03 10:14:32;;;;;;;1.88;1.00;;;23.90;38.10;;;;;;4983032;28;20371;-68
2022/09/03 10:17:27;;;;;;;5.43;1.55;;;23.90;37.90;;;;;;4976269;28;20035;-69
2022/09/03 10:22:54;;;;;;;3.33;0.90;;;24.00;37.00;;;;;;4993134;28;20116;-69
2022/09/03 10:25:23;;;;;;;2.85;1.27;;;24.10;37.10;;;;;;4988562;28;20049;-68
2022/09/03 10:27:52;;;;;;;1.02;0.80;;;24.20;37.00;;;;;;4962742;28;20129;-68
2022/09/03 10:30:18;;;;;;;5.30;0.93;;;24.20;36.90;;;;;;4975173;28;20443;-68
2022/09/03 10:33:10;;;;;;;3.70;0.93;;;24.30;36.90;;;;;;4975142;28;20426;-68
2022/09/03 10:35:50;;;;;;;3.92;0.82;;;24.30;37.00;;;;;;4979979;28;20041;-69
2022/09/03 10:38:33;;;;;;;2.17;0.90;;;24.40;36.90;;;;;;4983506;28;20130;-68
2022/09/03 10:41:32;;;;;;;2.42;0.98;;;24.50;36.50;;;;;;4980402;28;20066;-68
2022/09/03 10:44:27;;;;;;;2.83;1.00;;;24.50;36.50;;;;;;4978777;28;20038;-68
2022/09/03 10:46:56;;;;;;;2.33;0.63;;;24.50;35.90;;;;;;4988194;28;20054;-68
2022/09/03 10:49:24;;;;;;;5.18;0.90;;;24.60;35.60;;;;;;4994989;28;20387;-69
2022/09/03 10:52:06;;;;;;;2.65;0.82;;;24.60;35.70;;;;;;4996984;28;20046;-68
2022/09/03 10:54:34;;;;;;;2.65;0.80;;;24.70;35.90;;;;;;4996333;28;20463;-68
2022/09/03 10:57:26;;;;;;;4.07;0.88;;;24.80;36.20;;;;;;4994832;28;20047;-69
2022/09/03 11:00:13;;;;;;;1.25;0.82;;;24.90;35.50;;;;;;4979236;28;20042;-68
2022/09/03 11:02:51;;;;;;;2.13;1.00;;;24.90;35.30;;;;;;4977315;28;20435;-68
2022/09/03 11:05:28;;;;;;;3.97;0.82;;;24.90;35.50;;;;;;4994901;28;20050;-68
2022/09/03 11:08:13;;;;;;;2.60;0.77;;;24.90;35.70;;;;;;4998285;28;20603;-68
2022/09/03 11:10:51;;;;;;;4.93;1.10;;;25.00;35.60;;;;;;4988727;28;20042;-67
2022/09/03 11:13:45;;;;;;;3.00;0.77;;;25.00;34.80;;;;;;4996334;28;20513;-68
2022/09/03 11:16:19;;;;;;;1.60;0.95;;;25.10;34.80;;;;;;4998454;28;20085;-68
2022/09/03 11:19:02;;;;;;;3.90;0.93;;;25.10;34.40;;;;;;4982096;28;20376;-68
2022/09/03 11:21:30;;;;;;;2.88;0.57;;;25.20;34.20;;;;;;4982368;28;20046;-68
2022/09/03 11:24:18;;;;;;;2.70;0.65;;;25.20;34.00;;;;;;4992796;28;20050;-68
2022/09/03 11:26:47;;;;;;;2.63;1.05;;;25.20;33.80;;;;;;4987226;28;20076;-68
2022/09/03 11:29:19;;;;;;;1.73;0.65;;;25.20;34.10;;;;;;4979963;28;20042;-68
2022/09/03 11:32:10;;;;;;;1.17;0.55;;;25.30;33.70;;;;;;4980180;28;20042;-68
2022/09/03 11:34:50;;;;;;;1.88;0.82;;;25.40;33.50;;;;;;4982692;28;20042;-67
2022/09/03 11:37:22;;;;;;;2.38;0.73;;;25.50;33.30;;;;;;4979283;28;20043;-68
2022/09/03 11:40:18;;;;;;;2.72;0.80;;;25.60;33.80;;;;;;4989408;28;20458;-68
2022/09/03 11:42:44;;;;;;;3.53;1.10;;;25.70;33.40;;;;;;4984825;28;20142;-67
2022/09/03 11:45:22;;;;;;;2.53;0.85;;;25.70;33.40;;;;;;4979278;28;20127;-67
2022/09/03 11:47:49;;;;;;;1.92;0.82;;;25.70;33.00;;;;;;4984608;28;20042;-67
2022/09/03 11:50:32;;;;;;;1.33;0.70;;;25.70;33.30;;;;;;4992109;28;20059;-68
2022/09/03 11:53:13;;;;;;;3.05;0.82;;;25.60;33.20;;;;;;4987119;28;20046;-67
2022/09/03 11:56:03;;;;;;;2.47;0.60;;;25.70;33.40;;;;;;4975654;28;20061;-67
2022/09/03 11:58:32;;;;;;;2.25;0.73;;;25.70;33.10;;;;;;4975501;28;20042;-67
2022/09/03 12:01:01;;;;;;;3.83;0.93;;;25.80;33.20;;;;;;4975504;28;20057;-67
2022/09/03 12:03:39;;;;;;;1.00;0.60;;;25.80;33.10;;;;;;4980758;28;20062;-67
2022/09/03 12:06:22;;;;;;;2.40;0.73;;;25.80;33.40;;;;;;4984178;28;20082;-67
2022/09/03 12:09:18;;;;;;;1.25;0.65;;;25.90;33.00;;;;;;4975338;28;20435;-67
2022/09/03 12:12:09;;;;;;;2.47;1.00;;;25.90;33.30;;;;;;5000188;28;20035;-67
2022/09/03 12:14:37;;;;;;;5.50;1.20;;;25.90;33.10;;;;;;4975203;28;20046;-66
2022/09/03 12:17:11;;;;;;;1.75;0.70;;;26.10;32.40;;;;;;4980315;28;20070;-66
2022/09/03 12:19:39;;;;;;;5.43;1.35;;;26.00;32.10;;;;;;4989686;28;20129;-67
2022/09/03 12:22:05;;;;;;;1.30;0.50;;;25.90;32.50;;;;;;4992910;28;20038;-66
2022/09/03 12:24:34;;;;;;;5.13;1.33;;;25.90;32.80;;;;;;4983486;28;20046;-67
2022/09/03 12:27:01;;;;;;;3.65;0.90;;;25.90;32.70;;;;;;4989111;28;20057;-67
2022/09/03 12:29:29;;;;;;;4.00;0.85;;;26.00;32.90;;;;;;4993871;28;20043;-67
2022/09/03 12:32:04;;;;;;;2.58;0.60;;;26.00;32.30;;;;;;4989379;28;20075;-66
2022/09/03 12:34:31;;;;;;;5.03;0.90;;;26.00;32.40;;;;;;4974841;28;20045;-66
2022/09/03 12:36:56;;;;;;;2.33;0.70;;;25.90;32.40;;;;;;4979331;28;20053;-67
2022/09/03 12:39:27;;;;;;;2.85;0.85;;;25.90;32.40;;;;;;4993668;28;20042;-67
2022/09/03 12:42:02;;;;;;;2.60;0.90;;;25.90;32.50;;;;;;4992149;28;20050;-66
2022/09/03 12:44:35;;;;;;;4.25;0.80;;;25.80;32.60;;;;;;4993822;28;20050;-66
2022/09/03 12:47:12;;;;;;;3.30;0.65;;;25.80;32.80;;;;;;4977745;28;20045;-66
2022/09/03 12:49:41;;;;;;;2.83;1.10;;;25.90;32.60;;;;;;4974496;28;20054;-67
2022/09/03 12:52:25;;;;;;;4.32;1.05;;;25.90;32.40;;;;;;4983410;28;20046;-67
2022/09/03 12:55:14;;;;;;;2.58;0.80;;;25.80;32.30;;;;;;4978366;28;20042;-67
2022/09/03 12:57:44;;;;;;;3.08;0.93;;;25.90;33.00;;;;;;4984068;28;20042;-67
2022/09/03 13:00:14;;;;;;;3.45;1.00;;;25.90;32.30;;;;;;4994205;28;20046;-67
2022/09/03 13:02:40;;;;;;;3.92;0.90;;;26.00;32.80;;;;;;4991972;28;20486;-67
2022/09/03 13:05:13;;;;;;;3.00;0.80;;;25.90;32.80;;;;;;4992927;28;20042;-67
2022/09/03 13:07:39;;;;;;;2.05;0.88;;;26.00;33.10;;;;;;4983778;28;20050;-67
2022/09/03 13:10:06;;;;;;;3.28;0.93;;;26.00;32.70;;;;;;4967756;28;20057;-67
2022/09/03 13:12:46;;;;;;;2.97;0.95;;;26.10;32.50;;;;;;4975434;28;20042;-68
2022/09/03 13:15:20;;;;;;;1.20;0.60;;;26.10;32.30;;;;;;4991390;28;20042;-67
2022/09/03 13:18:04;;;;;;;3.42;0.75;;;26.10;32.80;;;;;;4978440;28;20122;-67
2022/09/03 13:20:35;;;;;;;2.72;0.80;;;26.20;32.40;;;;;;4985145;28;20080;-67
2022/09/03 13:23:17;;;;;;;3.40;0.80;;;26.20;32.40;;;;;;4990794;28;20558;-67